sensor_id;sensor_type;location;lat;lon;timestamp;P1;durP1;ratioP1;P2;durP2;ratioP2
65545;SDS011;52177;55.968;37.498;2023-02-10T00:00:14;6.80;;;4.82;;
65545;SDS011;52177;55.968;37.498;2023-02-10T00:00:45;7.40;;;4.90;;
65545;SDS011;52177;55.968;37.498;2023-02-10T00:01:17;5.10;;;4.63;;
65545;SDS011;52177;55.968;37.498;2023-02-10T00:01:49;5.78;;;5.00;;
65545;SDS011;52177;55.968;37.498;2023-02-10T00:02:19;5.47;;;4.97;;
65545;SDS011;52177;55.968;37.498;2023-02-10T00:02:50;7.28;;;5.30;;
65545;SDS011;52177;55.968;37.498;2023-02-10T00:03:20;5.88;;;5.28;;
65545;SDS011;52177;55.968;37.498;2023-02-10T00:03:50;5.75;;;5.00;;
65545;SDS011;52177;55.968;37.498;2023-02-10T00:04:21;5.47;;;4.97;;
65545;SDS011;52177;55.968;37.498;2023-02-10T00:04:52;6.90;;;5.25;;
65545;SDS011;52177;55.968;37.498;2023-02-10T00:05:22;7.38;;;5.40;;
65545;SDS011;52177;55.968;37.498;2023-02-10T00:05:53;6.60;;;5.00;;
65545;SDS011;52177;55.968;37.498;2023-02-10T00:06:24;6.78;;;5.20;;
65545;SDS011;52177;55.968;37.498;2023-02-10T00:06:56;6.38;;;5.30;;
65545;SDS011;52177;55.968;37.498;2023-02-10T00:07:27;5.80;;;4.82;;
65545;SDS011;52177;55.968;37.498;2023-02-10T00:07:57;5.63;;;5.00;;
65545;SDS011;52177;55.968;37.498;2023-02-10T00:08:28;5.78;;;4.93;;
65545;SDS011;52177;55.968;37.498;2023-02-10T00:09:00;5.22;;;4.82;;
65545;SDS011;52177;55.968;37.498;2023-02-10T00:09:31;5.20;;;4.63;;
65545;SDS011;52177;55.968;37.498;2023-02-10T00:10:01;4.93;;;4.43;;
65545;SDS011;52177;55.968;37.498;2023-02-10T00:10:32;5.30;;;4.80;;
65545;SDS011;52177;55.968;37.498;2023-02-10T00:11:03;7.10;;;4.53;;
65545;SDS011;52177;55.968;37.498;2023-02-10T00:11:36;5.18;;;4.68;;
65545;SDS011;52177;55.968;37.498;2023-02-10T00:12:25;6.20;;;4.90;;
65545;SDS011;52177;55.968;37.498;2023-02-10T00:12:55;5.97;;;4.70;;
65545;SDS011;52177;55.968;37.498;2023-02-10T00:13:26;5.05;;;4.55;;
65545;SDS011;52177;55.968;37.498;2023-02-10T00:13:57;5.65;;;4.78;;
65545;SDS011;52177;55.968;37.498;2023-02-10T00:14:28;5.57;;;4.82;;
65545;SDS011;52177;55.968;37.498;2023-02-10T00:14:59;5.25;;;4.72;;
65545;SDS011;52177;55.968;37.498;2023-02-10T00:15:30;5.03;;;4.25;;
65545;SDS011;52177;55.968;37.498;2023-02-10T00:16:00;5.47;;;4.80;;
65545;SDS011;52177;55.968;37.498;2023-02-10T00:16:32;6.10;;;4.53;;
65545;SDS011;52177;55.968;37.498;2023-02-10T00:17:03;5.55;;;4.75;;
65545;SDS011;52177;55.968;37.498;2023-02-10T00:17:33;5.22;;;4.53;;
65545;SDS011;52177;55.968;37.498;2023-02-10T00:18:04;6.35;;;4.93;;
65545;SDS011;52177;55.968;37.498;2023-02-10T00:18:34;5.20;;;4.65;;
65545;SDS011;52177;55.968;37.498;2023-02-10T00:19:05;7.05;;;4.65;;
65545;SDS011;52177;55.968;37.498;2023-02-10T00:19:35;5.68;;;4.88;;
65545;SDS011;52177;55.968;37.498;2023-02-10T00:20:06;5.13;;;4.22;;
65545;SDS011;52177;55.968;37.498;2023-02-10T00:20:37;5.60;;;4.55;;
65545;SDS011;52177;55.968;37.498;2023-02-10T00:21:09;6.18;;;4.50;;
65545;SDS011;52177;55.968;37.498;2023-02-10T00:21:42;6.45;;;4.85;;
65545;SDS011;52177;55.968;37.498;2023-02-10T00:22:12;5.13;;;4.50;;
65545;SDS011;52177;55.968;37.498;2023-02-10T00:22:43;5.03;;;4.30;;
65545;SDS011;52177;55.968;37.498;2023-02-10T00:23:13;6.90;;;4.68;;
65545;SDS011;52177;55.968;37.498;2023-02-10T00:23:44;6.05;;;4.53;;
65545;SDS011;52177;55.968;37.498;2023-02-10T00:24:14;6.20;;;4.38;;
65545;SDS011;52177;55.968;37.498;2023-02-10T00:24:45;5.47;;;4.55;;
65545;SDS011;52177;55.968;37.498;2023-02-10T00:25:15;5.85;;;4.72;;
65545;SDS011;52177;55.968;37.498;2023-02-10T00:25:46;5.10;;;4.40;;
65545;SDS011;52177;55.968;37.498;2023-02-10T00:26:17;6.22;;;4.75;;
65545;SDS011;52177;55.968;37.498;2023-02-10T00:26:47;5.65;;;4.40;;
65545;SDS011;52177;55.968;37.498;2023-02-10T00:27:18;6.63;;;4.32;;
65545;SDS011;52177;55.968;37.498;2023-02-10T00:27:53;5.55;;;4.63;;
65545;SDS011;52177;55.968;37.498;2023-02-10T00:28:23;5.63;;;4.47;;
65545;SDS011;52177;55.968;37.498;2023-02-10T00:28:53;5.28;;;4.50;;
65545;SDS011;52177;55.968;37.498;2023-02-10T00:29:24;4.95;;;4.25;;
65545;SDS011;52177;55.968;37.498;2023-02-10T00:29:55;5.95;;;4.63;;
65545;SDS011;52177;55.968;37.498;2023-02-10T00:30:26;4.55;;;4.15;;
65545;SDS011;52177;55.968;37.498;2023-02-10T00:30:56;5.20;;;4.32;;
65545;SDS011;52177;55.968;37.498;2023-02-10T00:31:27;5.60;;;4.80;;
65545;SDS011;52177;55.968;37.498;2023-02-10T00:31:57;4.93;;;4.43;;
65545;SDS011;52177;55.968;37.498;2023-02-10T00:32:28;5.80;;;4.55;;
65545;SDS011;52177;55.968;37.498;2023-02-10T00:32:58;6.22;;;4.68;;
65545;SDS011;52177;55.968;37.498;2023-02-10T00:33:29;5.30;;;4.07;;
65545;SDS011;52177;55.968;37.498;2023-02-10T00:33:59;5.40;;;4.90;;
65545;SDS011;52177;55.968;37.498;2023-02-10T00:34:29;5.65;;;4.55;;
65545;SDS011;52177;55.968;37.498;2023-02-10T00:35:00;5.22;;;4.50;;
65545;SDS011;52177;55.968;37.498;2023-02-10T00:35:30;5.18;;;4.68;;
65545;SDS011;52177;55.968;37.498;2023-02-10T00:36:05;5.70;;;4.40;;
65545;SDS011;52177;55.968;37.498;2023-02-10T00:36:37;5.53;;;4.53;;
65545;SDS011;52177;55.968;37.498;2023-02-10T00:37:08;5.50;;;4.60;;
65545;SDS011;52177;55.968;37.498;2023-02-10T00:37:38;4.85;;;4.35;;
65545;SDS011;52177;55.968;37.498;2023-02-10T00:38:08;4.95;;;4.35;;
65545;SDS011;52177;55.968;37.498;2023-02-10T00:38:39;5.20;;;4.70;;
65545;SDS011;52177;55.968;37.498;2023-02-10T00:39:14;5.20;;;4.70;;
65545;SDS011;52177;55.968;37.498;2023-02-10T00:39:45;5.22;;;4.57;;
65545;SDS011;52177;55.968;37.498;2023-02-10T00:40:16;5.47;;;4.28;;
65545;SDS011;52177;55.968;37.498;2023-02-10T00:40:47;5.05;;;4.32;;
65545;SDS011;52177;55.968;37.498;2023-02-10T00:41:18;4.88;;;4.38;;
65545;SDS011;52177;55.968;37.498;2023-02-10T00:41:51;5.35;;;4.32;;
65545;SDS011;52177;55.968;37.498;2023-02-10T00:42:21;5.55;;;4.38;;
65545;SDS011;52177;55.968;37.498;2023-02-10T00:42:52;5.30;;;4.80;;
65545;SDS011;52177;55.968;37.498;2023-02-10T00:43:22;5.47;;;4.93;;
65545;SDS011;52177;55.968;37.498;2023-02-10T00:43:52;6.13;;;4.70;;
65545;SDS011;52177;55.968;37.498;2023-02-10T00:44:23;4.97;;;4.18;;
65545;SDS011;52177;55.968;37.498;2023-02-10T00:44:53;5.60;;;4.53;;
65545;SDS011;52177;55.968;37.498;2023-02-10T00:45:24;5.35;;;4.85;;
65545;SDS011;52177;55.968;37.498;2023-02-10T00:45:55;5.65;;;4.95;;
65545;SDS011;52177;55.968;37.498;2023-02-10T00:46:25;6.05;;;4.63;;
65545;SDS011;52177;55.968;37.498;2023-02-10T00:46:56;6.32;;;4.65;;
65545;SDS011;52177;55.968;37.498;2023-02-10T00:47:26;5.43;;;4.40;;
65545;SDS011;52177;55.968;37.498;2023-02-10T00:47:57;6.47;;;4.93;;
65545;SDS011;52177;55.968;37.498;2023-02-10T00:48:27;5.85;;;4.72;;
65545;SDS011;52177;55.968;37.498;2023-02-10T00:48:58;6.20;;;5.13;;
65545;SDS011;52177;55.968;37.498;2023-02-10T00:49:28;5.78;;;4.70;;
65545;SDS011;52177;55.968;37.498;2023-02-10T00:49:58;5.53;;;4.70;;
65545;SDS011;52177;55.968;37.498;2023-02-10T00:50:29;5.22;;;4.47;;
65545;SDS011;52177;55.968;37.498;2023-02-10T00:50:59;4.65;;;4.20;;
65545;SDS011;52177;55.968;37.498;2023-02-10T00:51:30;7.63;;;5.65;;
65545;SDS011;52177;55.968;37.498;2023-02-10T00:52:01;5.45;;;4.68;;
65545;SDS011;52177;55.968;37.498;2023-02-10T00:52:31;6.07;;;4.97;;
65545;SDS011;52177;55.968;37.498;2023-02-10T00:53:02;5.97;;;4.53;;
65545;SDS011;52177;55.968;37.498;2023-02-10T00:53:32;5.20;;;4.68;;
65545;SDS011;52177;55.968;37.498;2023-02-10T00:54:03;5.20;;;4.65;;
65545;SDS011;52177;55.968;37.498;2023-02-10T00:54:33;5.40;;;4.45;;
65545;SDS011;52177;55.968;37.498;2023-02-10T00:55:04;4.95;;;4.45;;
65545;SDS011;52177;55.968;37.498;2023-02-10T00:55:35;5.32;;;4.60;;
65545;SDS011;52177;55.968;37.498;2023-02-10T00:56:06;5.45;;;4.60;;
65545;SDS011;52177;55.968;37.498;2023-02-10T00:56:36;6.13;;;4.70;;
65545;SDS011;52177;55.968;37.498;2023-02-10T00:57:07;5.10;;;4.60;;
65545;SDS011;52177;55.968;37.498;2023-02-10T00:57:37;4.68;;;4.20;;
65545;SDS011;52177;55.968;37.498;2023-02-10T00:58:07;5.90;;;4.75;;
65545;SDS011;52177;55.968;37.498;2023-02-10T00:58:38;5.30;;;4.03;;
65545;SDS011;52177;55.968;37.498;2023-02-10T00:59:09;5.65;;;4.35;;
65545;SDS011;52177;55.968;37.498;2023-02-10T00:59:42;5.15;;;4.65;;
65545;SDS011;52177;55.968;37.498;2023-02-10T01:00:13;4.70;;;4.13;;
65545;SDS011;52177;55.968;37.498;2023-02-10T01:00:44;5.60;;;4.10;;
65545;SDS011;52177;55.968;37.498;2023-02-10T01:01:14;4.90;;;4.50;;
65545;SDS011;52177;55.968;37.498;2023-02-10T01:01:45;5.55;;;4.70;;
65545;SDS011;52177;55.968;37.498;2023-02-10T01:02:16;6.05;;;4.68;;
65545;SDS011;52177;55.968;37.498;2023-02-10T01:02:46;6.22;;;4.45;;
65545;SDS011;52177;55.968;37.498;2023-02-10T01:03:17;5.43;;;4.53;;
65545;SDS011;52177;55.968;37.498;2023-02-10T01:03:47;5.30;;;4.40;;
65545;SDS011;52177;55.968;37.498;2023-02-10T01:04:17;5.07;;;4.35;;
65545;SDS011;52177;55.968;37.498;2023-02-10T01:04:48;6.28;;;4.40;;
65545;SDS011;52177;55.968;37.498;2023-02-10T01:05:19;5.68;;;4.47;;
65545;SDS011;52177;55.968;37.498;2023-02-10T01:05:49;4.65;;;4.10;;
65545;SDS011;52177;55.968;37.498;2023-02-10T01:06:20;4.65;;;4.25;;
65545;SDS011;52177;55.968;37.498;2023-02-10T01:06:51;6.85;;;4.90;;
65545;SDS011;52177;55.968;37.498;2023-02-10T01:07:21;5.72;;;4.40;;
65545;SDS011;52177;55.968;37.498;2023-02-10T01:07:52;4.60;;;4.10;;
65545;SDS011;52177;55.968;37.498;2023-02-10T01:08:22;5.70;;;4.10;;
65545;SDS011;52177;55.968;37.498;2023-02-10T01:08:53;7.05;;;5.13;;
65545;SDS011;52177;55.968;37.498;2023-02-10T01:09:23;6.53;;;4.38;;
65545;SDS011;52177;55.968;37.498;2023-02-10T01:09:54;4.93;;;4.38;;
65545;SDS011;52177;55.968;37.498;2023-02-10T01:10:25;6.88;;;5.20;;
65545;SDS011;52177;55.968;37.498;2023-02-10T01:11:05;5.55;;;4.65;;
65545;SDS011;52177;55.968;37.498;2023-02-10T01:11:38;5.15;;;4.65;;
65545;SDS011;52177;55.968;37.498;2023-02-10T01:12:09;5.78;;;4.82;;
65545;SDS011;52177;55.968;37.498;2023-02-10T01:12:39;5.93;;;4.55;;
65545;SDS011;52177;55.968;37.498;2023-02-10T01:13:10;5.50;;;4.28;;
65545;SDS011;52177;55.968;37.498;2023-02-10T01:13:42;6.32;;;5.00;;
65545;SDS011;52177;55.968;37.498;2023-02-10T01:14:13;6.25;;;4.82;;
65545;SDS011;52177;55.968;37.498;2023-02-10T01:14:43;4.65;;;4.07;;
65545;SDS011;52177;55.968;37.498;2023-02-10T01:15:14;5.10;;;4.55;;
65545;SDS011;52177;55.968;37.498;2023-02-10T01:15:46;6.38;;;5.28;;
65545;SDS011;52177;55.968;37.498;2023-02-10T01:16:16;6.43;;;4.68;;
65545;SDS011;52177;55.968;37.498;2023-02-10T01:16:47;6.45;;;5.03;;
65545;SDS011;52177;55.968;37.498;2023-02-10T01:17:17;6.20;;;4.88;;
65545;SDS011;52177;55.968;37.498;2023-02-10T01:17:48;5.40;;;4.68;;
65545;SDS011;52177;55.968;37.498;2023-02-10T01:18:18;8.05;;;5.53;;
65545;SDS011;52177;55.968;37.498;2023-02-10T01:18:49;7.70;;;5.50;;
65545;SDS011;52177;55.968;37.498;2023-02-10T01:19:19;6.55;;;4.85;;
65545;SDS011;52177;55.968;37.498;2023-02-10T01:19:50;5.35;;;4.68;;
65545;SDS011;52177;55.968;37.498;2023-02-10T01:20:21;6.72;;;5.10;;
65545;SDS011;52177;55.968;37.498;2023-02-10T01:20:52;6.78;;;5.55;;
65545;SDS011;52177;55.968;37.498;2023-02-10T01:21:22;6.00;;;4.85;;
65545;SDS011;52177;55.968;37.498;2023-02-10T01:21:52;7.32;;;5.03;;
65545;SDS011;52177;55.968;37.498;2023-02-10T01:22:23;7.72;;;5.13;;
65545;SDS011;52177;55.968;37.498;2023-02-10T01:22:53;6.75;;;4.97;;
65545;SDS011;52177;55.968;37.498;2023-02-10T01:23:26;5.63;;;5.00;;
65545;SDS011;52177;55.968;37.498;2023-02-10T01:23:56;5.13;;;4.63;;
65545;SDS011;52177;55.968;37.498;2023-02-10T01:24:27;7.28;;;5.28;;
65545;SDS011;52177;55.968;37.498;2023-02-10T01:24:57;8.20;;;5.78;;
65545;SDS011;52177;55.968;37.498;2023-02-10T01:25:28;8.30;;;6.05;;
65545;SDS011;52177;55.968;37.498;2023-02-10T01:25:59;7.22;;;5.00;;
65545;SDS011;52177;55.968;37.498;2023-02-10T01:26:29;7.47;;;5.10;;
65545;SDS011;52177;55.968;37.498;2023-02-10T01:27:00;7.13;;;5.50;;
65545;SDS011;52177;55.968;37.498;2023-02-10T01:27:30;8.38;;;6.53;;
65545;SDS011;52177;55.968;37.498;2023-02-10T01:28:01;7.60;;;5.97;;
65545;SDS011;52177;55.968;37.498;2023-02-10T01:28:32;8.05;;;5.90;;
65545;SDS011;52177;55.968;37.498;2023-02-10T01:29:03;9.13;;;6.57;;
65545;SDS011;52177;55.968;37.498;2023-02-10T01:29:33;6.95;;;5.85;;
65545;SDS011;52177;55.968;37.498;2023-02-10T01:30:04;6.78;;;5.97;;
65545;SDS011;52177;55.968;37.498;2023-02-10T01:30:35;8.13;;;6.15;;
65545;SDS011;52177;55.968;37.498;2023-02-10T01:31:06;9.57;;;5.75;;
65545;SDS011;52177;55.968;37.498;2023-02-10T01:31:37;7.35;;;6.00;;
65545;SDS011;52177;55.968;37.498;2023-02-10T01:32:08;8.13;;;5.35;;
65545;SDS011;52177;55.968;37.498;2023-02-10T01:32:38;8.40;;;5.75;;
65545;SDS011;52177;55.968;37.498;2023-02-10T01:33:08;8.10;;;5.88;;
65545;SDS011;52177;55.968;37.498;2023-02-10T01:33:39;8.77;;;6.47;;
65545;SDS011;52177;55.968;37.498;2023-02-10T01:34:11;8.38;;;6.43;;
65545;SDS011;52177;55.968;37.498;2023-02-10T01:34:41;9.43;;;6.70;;
65545;SDS011;52177;55.968;37.498;2023-02-10T01:35:12;9.40;;;5.75;;
65545;SDS011;52177;55.968;37.498;2023-02-10T01:35:42;7.75;;;5.93;;
65545;SDS011;52177;55.968;37.498;2023-02-10T01:36:14;7.13;;;5.45;;
65545;SDS011;52177;55.968;37.498;2023-02-10T01:36:45;8.80;;;5.50;;
65545;SDS011;52177;55.968;37.498;2023-02-10T01:37:16;8.55;;;5.32;;
65545;SDS011;52177;55.968;37.498;2023-02-10T01:37:46;8.98;;;5.85;;
65545;SDS011;52177;55.968;37.498;2023-02-10T01:38:17;9.57;;;5.93;;
65545;SDS011;52177;55.968;37.498;2023-02-10T01:38:47;7.28;;;5.50;;
65545;SDS011;52177;55.968;37.498;2023-02-10T01:39:18;6.60;;;5.20;;
65545;SDS011;52177;55.968;37.498;2023-02-10T01:39:48;9.40;;;6.88;;
65545;SDS011;52177;55.968;37.498;2023-02-10T01:40:19;9.00;;;6.25;;
65545;SDS011;52177;55.968;37.498;2023-02-10T01:40:49;7.40;;;6.45;;
65545;SDS011;52177;55.968;37.498;2023-02-10T01:41:21;7.57;;;6.07;;
65545;SDS011;52177;55.968;37.498;2023-02-10T01:41:53;9.13;;;6.18;;
65545;SDS011;52177;55.968;37.498;2023-02-10T01:42:23;8.77;;;5.65;;
65545;SDS011;52177;55.968;37.498;2023-02-10T01:42:53;9.90;;;6.00;;
65545;SDS011;52177;55.968;37.498;2023-02-10T01:43:24;8.48;;;5.63;;
65545;SDS011;52177;55.968;37.498;2023-02-10T01:45:32;8.90;;;6.40;;
65545;SDS011;52177;55.968;37.498;2023-02-10T01:46:04;8.63;;;5.80;;
65545;SDS011;52177;55.968;37.498;2023-02-10T01:46:34;7.28;;;5.28;;
65545;SDS011;52177;55.968;37.498;2023-02-10T01:47:05;8.90;;;5.88;;
65545;SDS011;52177;55.968;37.498;2023-02-10T01:47:36;8.60;;;5.85;;
65545;SDS011;52177;55.968;37.498;2023-02-10T01:48:08;9.10;;;6.30;;
65545;SDS011;52177;55.968;37.498;2023-02-10T01:48:39;8.95;;;5.78;;
65545;SDS011;52177;55.968;37.498;2023-02-10T01:49:10;8.90;;;5.65;;
65545;SDS011;52177;55.968;37.498;2023-02-10T01:49:45;7.68;;;5.90;;
65545;SDS011;52177;55.968;37.498;2023-02-10T01:50:20;8.55;;;6.00;;
65545;SDS011;52177;55.968;37.498;2023-02-10T01:50:54;9.93;;;6.00;;
65545;SDS011;52177;55.968;37.498;2023-02-10T01:51:52;7.82;;;6.40;;
65545;SDS011;52177;55.968;37.498;2023-02-10T01:52:24;7.30;;;5.65;;
65545;SDS011;52177;55.968;37.498;2023-02-10T01:52:59;9.02;;;5.93;;
65545;SDS011;52177;55.968;37.498;2023-02-10T01:53:30;7.80;;;5.63;;
65545;SDS011;52177;55.968;37.498;2023-02-10T01:54:01;8.32;;;6.03;;
65545;SDS011;52177;55.968;37.498;2023-02-10T01:54:33;8.00;;;6.45;;
65545;SDS011;52177;55.968;37.498;2023-02-10T01:55:10;9.02;;;6.30;;
65545;SDS011;52177;55.968;37.498;2023-02-10T01:55:43;8.75;;;6.57;;
65545;SDS011;52177;55.968;37.498;2023-02-10T01:56:16;8.55;;;6.20;;
65545;SDS011;52177;55.968;37.498;2023-02-10T01:56:48;8.23;;;5.97;;
65545;SDS011;52177;55.968;37.498;2023-02-10T01:57:20;9.52;;;6.60;;
65545;SDS011;52177;55.968;37.498;2023-02-10T01:57:50;8.05;;;5.90;;
65545;SDS011;52177;55.968;37.498;2023-02-10T01:58:25;7.90;;;6.20;;
65545;SDS011;52177;55.968;37.498;2023-02-10T01:58:57;9.13;;;6.13;;
65545;SDS011;52177;55.968;37.498;2023-02-10T01:59:30;9.55;;;6.32;;
65545;SDS011;52177;55.968;37.498;2023-02-10T02:00:04;10.07;;;5.85;;
65545;SDS011;52177;55.968;37.498;2023-02-10T02:00:36;9.48;;;6.22;;
65545;SDS011;52177;55.968;37.498;2023-02-10T02:01:07;10.00;;;6.15;;
65545;SDS011;52177;55.968;37.498;2023-02-10T02:01:37;9.02;;;6.20;;
65545;SDS011;52177;55.968;37.498;2023-02-10T02:02:08;9.95;;;6.53;;
65545;SDS011;52177;55.968;37.498;2023-02-10T02:02:41;9.60;;;7.00;;
65545;SDS011;52177;55.968;37.498;2023-02-10T02:03:13;9.93;;;6.50;;
65545;SDS011;52177;55.968;37.498;2023-02-10T02:03:44;8.18;;;6.20;;
65545;SDS011;52177;55.968;37.498;2023-02-10T02:04:15;8.85;;;6.07;;
65545;SDS011;52177;55.968;37.498;2023-02-10T02:04:49;7.30;;;5.53;;
65545;SDS011;52177;55.968;37.498;2023-02-10T02:05:55;7.60;;;5.43;;
65545;SDS011;52177;55.968;37.498;2023-02-10T02:06:18;8.43;;;6.40;;
65545;SDS011;52177;55.968;37.498;2023-02-10T02:06:49;10.10;;;5.90;;
65545;SDS011;52177;55.968;37.498;2023-02-10T02:07:21;8.50;;;6.70;;
65545;SDS011;52177;55.968;37.498;2023-02-10T02:07:53;8.13;;;5.90;;
65545;SDS011;52177;55.968;37.498;2023-02-10T02:08:25;8.63;;;5.78;;
65545;SDS011;52177;55.968;37.498;2023-02-10T02:08:58;7.68;;;5.57;;
65545;SDS011;52177;55.968;37.498;2023-02-10T02:09:29;9.43;;;6.30;;
65545;SDS011;52177;55.968;37.498;2023-02-10T02:09:59;9.25;;;6.32;;
65545;SDS011;52177;55.968;37.498;2023-02-10T02:10:36;8.18;;;5.30;;
65545;SDS011;52177;55.968;37.498;2023-02-10T02:12:58;6.60;;;4.95;;
65545;SDS011;52177;55.968;37.498;2023-02-10T02:14:14;9.70;;;6.47;;
65545;SDS011;52177;55.968;37.498;2023-02-10T02:15:04;7.10;;;5.25;;
65545;SDS011;52177;55.968;37.498;2023-02-10T02:15:54;6.75;;;5.15;;
65545;SDS011;52177;55.968;37.498;2023-02-10T02:16:36;9.23;;;5.75;;
65545;SDS011;52177;55.968;37.498;2023-02-10T02:17:35;7.25;;;5.22;;
65545;SDS011;52177;55.968;37.498;2023-02-10T02:24:11;9.55;;;5.57;;
65545;SDS011;52177;55.968;37.498;2023-02-10T02:34:03;8.23;;;5.72;;
65545;SDS011;52177;55.968;37.498;2023-02-10T02:35:17;8.02;;;5.80;;
65545;SDS011;52177;55.968;37.498;2023-02-10T02:36:01;9.40;;;5.90;;
65545;SDS011;52177;55.968;37.498;2023-02-10T02:36:40;8.15;;;6.38;;
65545;SDS011;52177;55.968;37.498;2023-02-10T02:37:25;8.40;;;5.35;;
65545;SDS011;52177;55.968;37.498;2023-02-10T02:37:59;7.63;;;6.03;;
65545;SDS011;52177;55.968;37.498;2023-02-10T02:38:29;6.82;;;5.97;;
65545;SDS011;52177;55.968;37.498;2023-02-10T02:39:01;10.18;;;6.50;;
65545;SDS011;52177;55.968;37.498;2023-02-10T02:39:32;8.57;;;5.97;;
65545;SDS011;52177;55.968;37.498;2023-02-10T02:40:04;9.07;;;6.40;;
65545;SDS011;52177;55.968;37.498;2023-02-10T02:40:35;8.45;;;5.93;;
65545;SDS011;52177;55.968;37.498;2023-02-10T02:41:08;8.13;;;5.75;;
65545;SDS011;52177;55.968;37.498;2023-02-10T02:41:39;10.20;;;6.18;;
65545;SDS011;52177;55.968;37.498;2023-02-10T02:42:45;7.93;;;5.90;;
65545;SDS011;52177;55.968;37.498;2023-02-10T02:43:16;8.50;;;6.07;;
65545;SDS011;52177;55.968;37.498;2023-02-10T02:43:46;8.77;;;6.53;;
65545;SDS011;52177;55.968;37.498;2023-02-10T02:44:17;8.68;;;6.15;;
65545;SDS011;52177;55.968;37.498;2023-02-10T02:44:55;9.73;;;6.80;;
65545;SDS011;52177;55.968;37.498;2023-02-10T02:47:22;9.02;;;6.55;;
65545;SDS011;52177;55.968;37.498;2023-02-10T02:48:28;8.23;;;5.95;;
65545;SDS011;52177;55.968;37.498;2023-02-10T02:50:08;7.10;;;5.60;;
65545;SDS011;52177;55.968;37.498;2023-02-10T02:52:31;9.10;;;6.60;;
65545;SDS011;52177;55.968;37.498;2023-02-10T02:53:39;9.25;;;6.28;;
65545;SDS011;52177;55.968;37.498;2023-02-10T02:54:23;9.25;;;6.22;;
65545;SDS011;52177;55.968;37.498;2023-02-10T02:54:57;8.70;;;6.35;;
65545;SDS011;52177;55.968;37.498;2023-02-10T02:56:00;9.77;;;6.45;;
65545;SDS011;52177;55.968;37.498;2023-02-10T02:56:41;8.18;;;6.10;;
65545;SDS011;52177;55.968;37.498;2023-02-10T02:57:54;9.20;;;6.80;;
65545;SDS011;52177;55.968;37.498;2023-02-10T02:59:49;8.90;;;7.20;;
65545;SDS011;52177;55.968;37.498;2023-02-10T03:00:27;9.45;;;7.32;;
65545;SDS011;52177;55.968;37.498;2023-02-10T03:01:02;9.75;;;7.43;;
65545;SDS011;52177;55.968;37.498;2023-02-10T03:01:55;7.63;;;6.38;;
65545;SDS011;52177;55.968;37.498;2023-02-10T03:02:29;8.35;;;6.90;;
65545;SDS011;52177;55.968;37.498;2023-02-10T03:03:00;10.00;;;7.43;;
65545;SDS011;52177;55.968;37.498;2023-02-10T03:03:32;8.50;;;7.03;;
65545;SDS011;52177;55.968;37.498;2023-02-10T03:04:03;10.45;;;7.13;;
65545;SDS011;52177;55.968;37.498;2023-02-10T03:04:35;10.52;;;7.38;;
65545;SDS011;52177;55.968;37.498;2023-02-10T03:05:07;8.88;;;7.13;;
65545;SDS011;52177;55.968;37.498;2023-02-10T03:05:39;11.57;;;7.38;;
65545;SDS011;52177;55.968;37.498;2023-02-10T03:06:09;9.10;;;7.25;;
65545;SDS011;52177;55.968;37.498;2023-02-10T03:06:40;7.85;;;7.03;;
65545;SDS011;52177;55.968;37.498;2023-02-10T03:07:10;9.95;;;7.82;;
65545;SDS011;52177;55.968;37.498;2023-02-10T03:07:40;8.82;;;7.32;;
65545;SDS011;52177;55.968;37.498;2023-02-10T03:08:11;10.35;;;7.60;;
65545;SDS011;52177;55.968;37.498;2023-02-10T03:08:41;10.82;;;7.60;;
65545;SDS011;52177;55.968;37.498;2023-02-10T03:09:12;8.55;;;7.55;;
65545;SDS011;52177;55.968;37.498;2023-02-10T03:09:43;8.00;;;7.20;;
65545;SDS011;52177;55.968;37.498;2023-02-10T03:10:14;10.90;;;7.45;;
65545;SDS011;52177;55.968;37.498;2023-02-10T03:10:44;12.02;;;7.68;;
65545;SDS011;52177;55.968;37.498;2023-02-10T03:11:15;10.18;;;6.93;;
65545;SDS011;52177;55.968;37.498;2023-02-10T03:11:45;10.77;;;7.80;;
65545;SDS011;52177;55.968;37.498;2023-02-10T03:12:16;9.48;;;7.68;;
65545;SDS011;52177;55.968;37.498;2023-02-10T03:12:47;10.70;;;7.82;;
65545;SDS011;52177;55.968;37.498;2023-02-10T03:13:17;9.15;;;7.47;;
65545;SDS011;52177;55.968;37.498;2023-02-10T03:13:48;10.35;;;8.35;;
65545;SDS011;52177;55.968;37.498;2023-02-10T03:14:18;9.95;;;8.15;;
65545;SDS011;52177;55.968;37.498;2023-02-10T03:14:48;8.43;;;7.30;;
65545;SDS011;52177;55.968;37.498;2023-02-10T03:15:19;13.77;;;8.30;;
65545;SDS011;52177;55.968;37.498;2023-02-10T03:15:49;10.27;;;7.90;;
65545;SDS011;52177;55.968;37.498;2023-02-10T03:16:20;11.05;;;7.55;;
65545;SDS011;52177;55.968;37.498;2023-02-10T03:16:50;9.57;;;8.18;;
65545;SDS011;52177;55.968;37.498;2023-02-10T03:17:21;9.98;;;7.95;;
65545;SDS011;52177;55.968;37.498;2023-02-10T03:17:51;11.70;;;8.35;;
65545;SDS011;52177;55.968;37.498;2023-02-10T03:18:22;12.18;;;8.23;;
65545;SDS011;52177;55.968;37.498;2023-02-10T03:18:52;11.93;;;8.55;;
65545;SDS011;52177;55.968;37.498;2023-02-10T03:19:23;9.13;;;7.60;;
65545;SDS011;52177;55.968;37.498;2023-02-10T03:19:53;10.57;;;8.27;;
65545;SDS011;52177;55.968;37.498;2023-02-10T03:20:24;10.65;;;8.40;;
65545;SDS011;52177;55.968;37.498;2023-02-10T03:20:54;8.90;;;7.63;;
65545;SDS011;52177;55.968;37.498;2023-02-10T03:21:25;9.15;;;8.15;;
65545;SDS011;52177;55.968;37.498;2023-02-10T03:21:55;9.95;;;8.10;;
65545;SDS011;52177;55.968;37.498;2023-02-10T03:22:26;10.45;;;8.25;;
65545;SDS011;52177;55.968;37.498;2023-02-10T03:22:56;9.60;;;7.88;;
65545;SDS011;52177;55.968;37.498;2023-02-10T03:23:27;8.45;;;7.03;;
65545;SDS011;52177;55.968;37.498;2023-02-10T03:23:57;10.73;;;7.90;;
65545;SDS011;52177;55.968;37.498;2023-02-10T03:24:28;11.38;;;8.07;;
65545;SDS011;52177;55.968;37.498;2023-02-10T03:24:58;10.50;;;8.27;;
65545;SDS011;52177;55.968;37.498;2023-02-10T03:25:29;10.68;;;8.77;;
65545;SDS011;52177;55.968;37.498;2023-02-10T03:25:59;13.85;;;8.50;;
65545;SDS011;52177;55.968;37.498;2023-02-10T03:26:30;11.82;;;8.43;;
65545;SDS011;52177;55.968;37.498;2023-02-10T03:27:01;10.27;;;7.93;;
65545;SDS011;52177;55.968;37.498;2023-02-10T03:27:35;10.60;;;8.02;;
65545;SDS011;52177;55.968;37.498;2023-02-10T03:28:05;13.85;;;8.70;;
65545;SDS011;52177;55.968;37.498;2023-02-10T03:28:36;10.45;;;9.35;;
65545;SDS011;52177;55.968;37.498;2023-02-10T03:29:06;11.65;;;9.43;;
65545;SDS011;52177;55.968;37.498;2023-02-10T03:29:37;12.35;;;8.77;;
65545;SDS011;52177;55.968;37.498;2023-02-10T03:30:07;8.90;;;8.00;;
65545;SDS011;52177;55.968;37.498;2023-02-10T03:30:38;9.50;;;8.18;;
65545;SDS011;52177;55.968;37.498;2023-02-10T03:31:12;12.45;;;8.55;;
65545;SDS011;52177;55.968;37.498;2023-02-10T03:31:45;13.10;;;9.02;;
65545;SDS011;52177;55.968;37.498;2023-02-10T03:32:16;11.45;;;8.63;;
65545;SDS011;52177;55.968;37.498;2023-02-10T03:32:46;10.95;;;8.10;;
65545;SDS011;52177;55.968;37.498;2023-02-10T03:33:18;10.23;;;8.48;;
65545;SDS011;52177;55.968;37.498;2023-02-10T03:33:49;12.32;;;8.93;;
65545;SDS011;52177;55.968;37.498;2023-02-10T03:34:19;10.40;;;9.00;;
65545;SDS011;52177;55.968;37.498;2023-02-10T03:34:50;11.68;;;8.82;;
65545;SDS011;52177;55.968;37.498;2023-02-10T03:35:20;11.13;;;8.65;;
65545;SDS011;52177;55.968;37.498;2023-02-10T03:35:51;11.13;;;8.68;;
65545;SDS011;52177;55.968;37.498;2023-02-10T03:36:21;10.88;;;8.40;;
65545;SDS011;52177;55.968;37.498;2023-02-10T03:36:52;11.68;;;9.23;;
65545;SDS011;52177;55.968;37.498;2023-02-10T03:37:22;9.73;;;8.60;;
65545;SDS011;52177;55.968;37.498;2023-02-10T03:37:53;12.52;;;9.00;;